sensor_id;sensor_type;location;lat;lon;timestamp;temperature;humidity
1880;DHT22;49285;49.002;8.390;2023-09-18T00:00:48;25.60;99.90
1880;DHT22;49285;49.002;8.390;2023-09-18T00:03:17;25.50;99.90
1880;DHT22;49285;49.002;8.390;2023-09-18T00:05:45;25.50;99.90
1880;DHT22;49285;49.002;8.390;2023-09-18T00:08:10;25.50;99.90
1880;DHT22;49285;49.002;8.390;2023-09-18T00:10:36;25.50;99.90
1880;DHT22;49285;49.002;8.390;2023-09-18T00:13:02;25.50;99.90
1880;DHT22;49285;49.002;8.390;2023-09-18T00:15:28;25.50;99.90
1880;DHT22;49285;49.002;8.390;2023-09-18T00:17:53;25.40;99.90
1880;DHT22;49285;49.002;8.390;2023-09-18T00:20:19;25.40;99.90
1880;DHT22;49285;49.002;8.390;2023-09-18T00:22:45;25.40;99.90
1880;DHT22;49285;49.002;8.390;2023-09-18T00:25:12;25.40;99.90
1880;DHT22;49285;49.002;8.390;2023-09-18T00:27:37;25.40;99.90
1880;DHT22;49285;49.002;8.390;2023-09-18T00:30:04;25.30;99.90
1880;DHT22;49285;49.002;8.390;2023-09-18T00:32:30;25.30;99.90
1880;DHT22;49285;49.002;8.390;2023-09-18T00:34:55;25.30;99.90
1880;DHT22;49285;49.002;8.390;2023-09-18T00:37:21;25.30;99.90
1880;DHT22;49285;49.002;8.390;2023-09-18T00:39:47;25.20;99.90
1880;DHT22;49285;49.002;8.390;2023-09-18T00:42:14;25.20;99.90
1880;DHT22;49285;49.002;8.390;2023-09-18T00:44:41;25.20;99.90
1880;DHT22;49285;49.002;8.390;2023-09-18T00:47:08;25.20;99.90
1880;DHT22;49285;49.002;8.390;2023-09-18T00:49:34;25.20;99.90
1880;DHT22;49285;49.002;8.390;2023-09-18T00:52:01;25.10;99.90
1880;DHT22;49285;49.002;8.390;2023-09-18T00:54:28;25.10;99.90
1880;DHT22;49285;49.002;8.390;2023-09-18T00:56:54;25.00;99.90
1880;DHT22;49285;49.002;8.390;2023-09-18T00:59:21;24.90;99.90
1880;DHT22;49285;49.002;8.390;2023-09-18T01:01:48;25.00;99.90
1880;DHT22;49285;49.002;8.390;2023-09-18T01:04:16;25.00;99.90
1880;DHT22;49285;49.002;8.390;2023-09-18T01:06:42;24.90;99.90
1880;DHT22;49285;49.002;8.390;2023-09-18T01:09:08;24.80;99.90
1880;DHT22;49285;49.002;8.390;2023-09-18T01:16:58;24.70;99.90
1880;DHT22;49285;49.002;8.390;2023-09-18T01:19:44;24.70;99.90
1880;DHT22;49285;49.002;8.390;2023-09-18T01:22:12;24.70;99.90
1880;DHT22;49285;49.002;8.390;2023-09-18T01:24:39;24.60;99.90
1880;DHT22;49285;49.002;8.390;2023-09-18T01:27:08;24.60;99.90
1880;DHT22;49285;49.002;8.390;2023-09-18T01:29:33;24.50;99.90
1880;DHT22;49285;49.002;8.390;2023-09-18T01:31:59;24.40;99.90
1880;DHT22;49285;49.002;8.390;2023-09-18T01:34:36;24.40;99.90
1880;DHT22;49285;49.002;8.390;2023-09-18T01:37:03;24.30;99.90
1880;DHT22;49285;49.002;8.390;2023-09-18T01:39:31;24.20;99.90
1880;DHT22;49285;49.002;8.390;2023-09-18T01:41:59;24.00;99.90
1880;DHT22;49285;49.002;8.390;2023-09-18T01:44:27;24.10;99.90
1880;DHT22;49285;49.002;8.390;2023-09-18T01:46:53;24.10;99.90
1880;DHT22;49285;49.002;8.390;2023-09-18T01:49:34;24.00;99.90
1880;DHT22;49285;49.002;8.390;2023-09-18T01:52:01;24.00;99.90
1880;DHT22;49285;49.002;8.390;2023-09-18T01:54:26;24.00;99.90
1880;DHT22;49285;49.002;8.390;2023-09-18T01:56:53;24.00;99.90
1880;DHT22;49285;49.002;8.390;2023-09-18T01:59:19;23.90;99.90
1880;DHT22;49285;49.002;8.390;2023-09-18T02:01:44;24.00;99.90
1880;DHT22;49285;49.002;8.390;2023-09-18T02:04:10;24.00;99.90
1880;DHT22;49285;49.002;8.390;2023-09-18T02:06:36;23.90;99.90
1880;DHT22;49285;49.002;8.390;2023-09-18T02:09:01;23.80;99.90
1880;DHT22;49285;49.002;8.390;2023-09-18T02:11:28;23.80;99.90
1880;DHT22;49285;49.002;8.390;2023-09-18T02:13:54;23.70;99.90
1880;DHT22;49285;49.002;8.390;2023-09-18T02:16:20;23.40;99.90
1880;DHT22;49285;49.002;8.390;2023-09-18T02:18:49;23.40;99.90
1880;DHT22;49285;49.002;8.390;2023-09-18T02:21:21;23.40;99.90
1880;DHT22;49285;49.002;8.390;2023-09-18T02:23:50;23.40;99.90
1880;DHT22;49285;49.002;8.390;2023-09-18T02:26:21;23.40;99.90
1880;DHT22;49285;49.002;8.390;2023-09-18T02:28:47;23.30;99.90
1880;DHT22;49285;49.002;8.390;2023-09-18T02:31:13;23.30;99.90
1880;DHT22;49285;49.002;8.390;2023-09-18T02:33:40;23.30;99.90
1880;DHT22;49285;49.002;8.390;2023-09-18T02:36:06;23.30;99.90
1880;DHT22;49285;49.002;8.390;2023-09-18T02:38:33;23.30;99.90
1880;DHT22;49285;49.002;8.390;2023-09-18T02:40:58;23.40;99.90
1880;DHT22;49285;49.002;8.390;2023-09-18T02:43:24;23.30;99.90
1880;DHT22;49285;49.002;8.390;2023-09-18T02:45:50;23.30;99.90
1880;DHT22;49285;49.002;8.390;2023-09-18T02:48:16;23.30;99.90
1880;DHT22;49285;49.002;8.390;2023-09-18T02:50:42;23.30;99.90
1880;DHT22;49285;49.002;8.390;2023-09-18T02:53:11;23.40;99.90
1880;DHT22;49285;49.002;8.390;2023-09-18T02:55:41;23.30;99.90
1880;DHT22;49285;49.002;8.390;2023-09-18T02:58:07;23.40;99.90
1880;DHT22;49285;49.002;8.390;2023-09-18T03:00:34;23.40;99.90
1880;DHT22;49285;49.002;8.390;2023-09-18T03:03:00;23.40;99.90
1880;DHT22;49285;49.002;8.390;2023-09-18T03:05:25;23.30;99.90
1880;DHT22;49285;49.002;8.390;2023-09-18T03:07:52;23.30;99.90
1880;DHT22;49285;49.002;8.390;2023-09-18T03:10:17;23.30;99.90
1880;DHT22;49285;49.002;8.390;2023-09-18T03:12:47;23.20;99.90
1880;DHT22;49285;49.002;8.390;2023-09-18T03:15:13;23.20;99.90
1880;DHT22;49285;49.002;8.390;2023-09-18T03:17:39;23.30;99.90
1880;DHT22;49285;49.002;8.390;2023-09-18T03:20:07;23.20;99.90
1880;DHT22;49285;49.002;8.390;2023-09-18T03:22:33;23.10;99.90
1880;DHT22;49285;49.002;8.390;2023-09-18T03:24:59;23.20;99.90
1880;DHT22;49285;49.002;8.390;2023-09-18T03:27:24;23.10;99.90
1880;DHT22;49285;49.002;8.390;2023-09-18T03:29:57;23.10;99.90
1880;DHT22;49285;49.002;8.390;2023-09-18T03:32:23;23.00;99.90
1880;DHT22;49285;49.002;8.390;2023-09-18T03:34:52;22.80;99.90
1880;DHT22;49285;49.002;8.390;2023-09-18T03:37:18;22.80;99.90
1880;DHT22;49285;49.002;8.390;2023-09-18T03:39:43;22.70;99.90
1880;DHT22;49285;49.002;8.390;2023-09-18T03:42:09;22.50;99.90
1880;DHT22;49285;49.002;8.390;2023-09-18T03:44:35;22.40;99.90
1880;DHT22;49285;49.002;8.390;2023-09-18T03:47:01;22.40;99.90
1880;DHT22;49285;49.002;8.390;2023-09-18T03:49:27;22.20;99.90
1880;DHT22;49285;49.002;8.390;2023-09-18T03:51:53;22.20;99.90
1880;DHT22;49285;49.002;8.390;2023-09-18T03:54:18;22.00;99.90
1880;DHT22;49285;49.002;8.390;2023-09-18T03:56:44;21.90;99.90
1880;DHT22;49285;49.002;8.390;2023-09-18T03:59:11;21.80;99.90
1880;DHT22;49285;49.002;8.390;2023-09-18T04:01:37;21.60;99.90
1880;DHT22;49285;49.002;8.390;2023-09-18T04:04:03;21.60;99.90
1880;DHT22;49285;49.002;8.390;2023-09-18T04:06:36;21.60;99.90
1880;DHT22;49285;49.002;8.390;2023-09-18T04:09:03;21.70;99.90
1880;DHT22;49285;49.002;8.390;2023-09-18T04:11:29;21.60;99.90
1880;DHT22;49285;49.002;8.390;2023-09-18T04:13:58;21.60;99.90
1880;DHT22;49285;49.002;8.390;2023-09-18T04:16:25;21.50;99.90
1880;DHT22;49285;49.002;8.390;2023-09-18T04:18:50;21.60;99.90
1880;DHT22;49285;49.002;8.390;2023-09-18T04:21:16;21.60;99.90
1880;DHT22;49285;49.002;8.390;2023-09-18T04:23:41;21.70;99.90
1880;DHT22;49285;49.002;8.390;2023-09-18T04:26:07;21.90;99.90
1880;DHT22;49285;49.002;8.390;2023-09-18T04:28:33;21.90;99.90
1880;DHT22;49285;49.002;8.390;2023-09-18T04:30:58;21.90;99.90
1880;DHT22;49285;49.002;8.390;2023-09-18T04:33:24;22.00;99.90
1880;DHT22;49285;49.002;8.390;2023-09-18T04:35:51;22.10;99.90
1880;DHT22;49285;49.002;8.390;2023-09-18T04:38:16;22.10;99.90
1880;DHT22;49285;49.002;8.390;2023-09-18T04:40:44;22.10;99.90
1880;DHT22;49285;49.002;8.390;2023-09-18T04:43:11;22.10;99.90
1880;DHT22;49285;49.002;8.390;2023-09-18T04:45:37;22.20;99.90
1880;DHT22;49285;49.002;8.390;2023-09-18T04:48:02;22.20;99.90
1880;DHT22;49285;49.002;8.390;2023-09-18T04:50:31;22.20;99.90
1880;DHT22;49285;49.002;8.390;2023-09-18T04:52:59;22.20;99.90
1880;DHT22;49285;49.002;8.390;2023-09-18T04:55:25;22.20;99.90
1880;DHT22;49285;49.002;8.390;2023-09-18T04:57:50;22.30;99.90
1880;DHT22;49285;49.002;8.390;2023-09-18T05:00:16;22.30;99.90
1880;DHT22;49285;49.002;8.390;2023-09-18T05:02:42;22.30;99.90
1880;DHT22;49285;49.002;8.390;2023-09-18T05:05:08;22.40;99.90
1880;DHT22;49285;49.002;8.390;2023-09-18T05:07:36;22.40;99.90
1880;DHT22;49285;49.002;8.390;2023-09-18T05:10:02;22.40;99.90
1880;DHT22;49285;49.002;8.390;2023-09-18T05:12:30;22.40;99.90
1880;DHT22;49285;49.002;8.390;2023-09-18T05:15:02;22.40;99.90
1880;DHT22;49285;49.002;8.390;2023-09-18T05:17:46;22.40;99.90
1880;DHT22;49285;49.002;8.390;2023-09-18T05:20:13;22.40;99.90
1880;DHT22;49285;49.002;8.390;2023-09-18T05:22:41;22.40;99.90
1880;DHT22;49285;49.002;8.390;2023-09-18T05:25:08;22.40;99.90
1880;DHT22;49285;49.002;8.390;2023-09-18T05:27:35;22.40;99.90
1880;DHT22;49285;49.002;8.390;2023-09-18T05:30:01;22.50;99.90
1880;DHT22;49285;49.002;8.390;2023-09-18T05:32:27;22.50;99.90
1880;DHT22;49285;49.002;8.390;2023-09-18T05:34:52;22.40;99.90
1880;DHT22;49285;49.002;8.390;2023-09-18T05:37:18;22.30;99.90
1880;DHT22;49285;49.002;8.390;2023-09-18T05:39:44;22.40;99.90
1880;DHT22;49285;49.002;8.390;2023-09-18T05:42:09;22.50;99.90
1880;DHT22;49285;49.002;8.390;2023-09-18T05:44:35;22.40;99.90
1880;DHT22;49285;49.002;8.390;2023-09-18T05:47:00;22.40;99.90
1880;DHT22;49285;49.002;8.390;2023-09-18T05:49:29;22.40;99.90
1880;DHT22;49285;49.002;8.390;2023-09-18T05:51:55;22.30;99.90
1880;DHT22;49285;49.002;8.390;2023-09-18T05:54:21;22.20;99.90
1880;DHT22;49285;49.002;8.390;2023-09-18T05:56:46;22.10;99.90
1880;DHT22;49285;49.002;8.390;2023-09-18T05:59:13;22.10;99.90
1880;DHT22;49285;49.002;8.390;2023-09-18T06:01:41;22.00;99.90
1880;DHT22;49285;49.002;8.390;2023-09-18T06:04:06;22.00;99.90
1880;DHT22;49285;49.002;8.390;2023-09-18T06:06:32;22.00;99.90
1880;DHT22;49285;49.002;8.390;2023-09-18T06:08:58;21.90;99.90
1880;DHT22;49285;49.002;8.390;2023-09-18T06:11:24;21.90;99.90
1880;DHT22;49285;49.002;8.390;2023-09-18T06:13:50;21.90;99.90
1880;DHT22;49285;49.002;8.390;2023-09-18T06:16:15;21.90;99.90
1880;DHT22;49285;49.002;8.390;2023-09-18T06:18:41;21.90;99.90
1880;DHT22;49285;49.002;8.390;2023-09-18T06:21:07;21.90;99.90
1880;DHT22;49285;49.002;8.390;2023-09-18T06:23:32;22.00;99.90
1880;DHT22;49285;49.002;8.390;2023-09-18T06:25:59;22.10;99.90
1880;DHT22;49285;49.002;8.390;2023-09-18T06:28:25;21.90;99.90
1880;DHT22;49285;49.002;8.390;2023-09-18T06:30:51;21.80;99.90
1880;DHT22;49285;49.002;8.390;2023-09-18T06:33:16;21.80;99.90
1880;DHT22;49285;49.002;8.390;2023-09-18T06:35:42;21.80;99.90
1880;DHT22;49285;49.002;8.390;2023-09-18T06:38:08;21.80;99.90
1880;DHT22;49285;49.002;8.390;2023-09-18T06:40:35;21.80;99.90
1880;DHT22;49285;49.002;8.390;2023-09-18T06:43:01;21.80;99.90
1880;DHT22;49285;49.002;8.390;2023-09-18T06:45:27;21.70;99.90
1880;DHT22;49285;49.002;8.390;2023-09-18T06:47:55;21.70;99.90
1880;DHT22;49285;49.002;8.390;2023-09-18T06:50:21;21.60;99.90
1880;DHT22;49285;49.002;8.390;2023-09-18T06:52:46;21.60;99.90
1880;DHT22;49285;49.002;8.390;2023-09-18T06:55:12;21.70;99.90
1880;DHT22;49285;49.002;8.390;2023-09-18T06:57:38;21.60;99.90
1880;DHT22;49285;49.002;8.390;2023-09-18T07:00:04;21.70;99.90
1880;DHT22;49285;49.002;8.390;2023-09-18T07:02:30;21.70;99.90
1880;DHT22;49285;49.002;8.390;2023-09-18T07:04:56;21.60;99.90
1880;DHT22;49285;49.002;8.390;2023-09-18T07:07:22;21.60;99.90
1880;DHT22;49285;49.002;8.390;2023-09-18T07:09:51;21.60;99.90
1880;DHT22;49285;49.002;8.390;2023-09-18T07:12:17;21.70;99.90
1880;DHT22;49285;49.002;8.390;2023-09-18T07:14:46;21.70;99.90
1880;DHT22;49285;49.002;8.390;2023-09-18T07:17:12;21.80;99.90
1880;DHT22;49285;49.002;8.390;2023-09-18T07:19:38;21.80;99.90
1880;DHT22;49285;49.002;8.390;2023-09-18T07:22:04;21.80;99.90
1880;DHT22;49285;49.002;8.390;2023-09-18T07:24:30;21.80;99.90
1880;DHT22;49285;49.002;8.390;2023-09-18T07:26:55;21.80;99.90
1880;DHT22;49285;49.002;8.390;2023-09-18T07:29:23;21.80;99.90
1880;DHT22;49285;49.002;8.390;2023-09-18T07:31:50;21.80;99.90
1880;DHT22;49285;49.002;8.390;2023-09-18T07:34:16;21.80;99.90
1880;DHT22;49285;49.002;8.390;2023-09-18T07:36:43;21.80;99.90
1880;DHT22;49285;49.002;8.390;2023-09-18T07:39:10;21.80;99.90
1880;DHT22;49285;49.002;8.390;2023-09-18T07:41:37;21.90;99.90
1880;DHT22;49285;49.002;8.390;2023-09-18T07:44:03;21.80;99.90
1880;DHT22;49285;49.002;8.390;2023-09-18T07:46:28;21.90;99.90
1880;DHT22;49285;49.002;8.390;2023-09-18T07:48:54;21.90;99.90
1880;DHT22;49285;49.002;8.390;2023-09-18T07:51:20;22.00;99.90
1880;DHT22;49285;49.002;8.390;2023-09-18T07:53:46;22.00;99.90
1880;DHT22;49285;49.002;8.390;2023-09-18T07:56:12;22.00;99.90
1880;DHT22;49285;49.002;8.390;2023-09-18T07:58:37;22.10;99.90
1880;DHT22;49285;49.002;8.390;2023-09-18T08:01:07;22.20;99.90
1880;DHT22;49285;49.002;8.390;2023-09-18T08:03:34;22.20;99.90
1880;DHT22;49285;49.002;8.390;2023-09-18T08:06:00;22.20;99.90
1880;DHT22;49285;49.002;8.390;2023-09-18T08:08:26;22.20;99.90
1880;DHT22;49285;49.002;8.390;2023-09-18T08:10:52;22.10;99.90
1880;DHT22;49285;49.002;8.390;2023-09-18T08:13:18;22.10;99.90
1880;DHT22;49285;49.002;8.390;2023-09-18T08:15:45;22.20;99.90
1880;DHT22;49285;49.002;8.390;2023-09-18T08:18:12;22.10;99.90
1880;DHT22;49285;49.002;8.390;2023-09-18T08:20:41;22.10;99.90
1880;DHT22;49285;49.002;8.390;2023-09-18T08:23:08;22.20;99.90
1880;DHT22;49285;49.002;8.390;2023-09-18T08:25:34;22.20;99.90
1880;DHT22;49285;49.002;8.390;2023-09-18T08:28:00;22.20;99.90
1880;DHT22;49285;49.002;8.390;2023-09-18T08:30:25;22.20;99.90
1880;DHT22;49285;49.002;8.390;2023-09-18T08:32:51;22.20;99.90
1880;DHT22;49285;49.002;8.390;2023-09-18T08:35:17;22.20;99.90
1880;DHT22;49285;49.002;8.390;2023-09-18T08:37:43;22.10;99.90
1880;DHT22;49285;49.002;8.390;2023-09-18T08:40:13;22.10;99.90
1880;DHT22;49285;49.002;8.390;2023-09-18T08:42:44;22.20;99.90
1880;DHT22;49285;49.002;8.390;2023-09-18T08:45:18;22.20;99.90
1880;DHT22;49285;49.002;8.390;2023-09-18T08:47:45;22.20;99.90
1880;DHT22;49285;49.002;8.390;2023-09-18T08:50:12;22.20;99.90
1880;DHT22;49285;49.002;8.390;2023-09-18T08:52:39;22.20;99.90
1880;DHT22;49285;49.002;8.390;2023-09-18T08:55:06;22.20;99.90
1880;DHT22;49285;49.002;8.390;2023-09-18T08:57:33;22.20;99.90
1880;DHT22;49285;49.002;8.390;2023-09-18T09:00:01;22.30;99.90
1880;DHT22;49285;49.002;8.390;2023-09-18T09:02:33;22.30;99.90
1880;DHT22;49285;49.002;8.390;2023-09-18T09:04:59;22.40;99.90
1880;DHT22;49285;49.002;8.390;2023-09-18T09:07:25;22.40;99.90
1880;DHT22;49285;49.002;8.390;2023-09-18T09:09:51;22.40;99.90
1880;DHT22;49285;49.002;8.390;2023-09-18T09:12:56;22.30;99.90
1880;DHT22;49285;49.002;8.390;2023-09-18T09:15:27;22.40;99.90
1880;DHT22;49285;49.002;8.390;2023-09-18T09:18:04;22.30;99.90
1880;DHT22;49285;49.002;8.390;2023-09-18T09:20:31;22.20;99.90
1880;DHT22;49285;49.002;8.390;2023-09-18T09:23:01;22.20;99.90
1880;DHT22;49285;49.002;8.390;2023-09-18T09:25:28;22.30;99.90
1880;DHT22;49285;49.002;8.390;2023-09-18T09:28:00;22.30;99.90
1880;DHT22;49285;49.002;8.390;2023-09-18T09:30:28;22.30;99.90
1880;DHT22;49285;49.002;8.390;2023-09-18T09:32:55;22.20;99.90
1880;DHT22;49285;49.002;8.390;2023-09-18T09:35:32;22.20;99.90
1880;DHT22;49285;49.002;8.390;2023-09-18T09:38:19;22.30;99.90
1880;DHT22;49285;49.002;8.390;2023-09-18T09:40:47;22.30;99.90
1880;DHT22;49285;49.002;8.390;2023-09-18T09:43:13;22.30;99.90
1880;DHT22;49285;49.002;8.390;2023-09-18T09:45:41;22.30;99.90
1880;DHT22;49285;49.002;8.390;2023-09-18T09:48:07;22.40;99.90
1880;DHT22;49285;49.002;8.390;2023-09-18T09:50:43;22.50;99.90
1880;DHT22;49285;49.002;8.390;2023-09-18T09:53:13;22.60;99.90
1880;DHT22;49285;49.002;8.390;2023-09-18T09:55:40;22.50;99.90
1880;DHT22;49285;49.002;8.390;2023-09-18T09:58:07;22.50;99.90
1880;DHT22;49285;49.002;8.390;2023-09-18T10:00:46;22.60;99.90
1880;DHT22;49285;49.002;8.390;2023-09-18T10:03:16;22.50;99.90
1880;DHT22;49285;49.002;8.390;2023-09-18T10:05:43;22.50;99.90
1880;DHT22;49285;49.002;8.390;2023-09-18T10:10:49;22.60;99.90
1880;DHT22;49285;49.002;8.390;2023-09-18T10:15:48;22.70;99.90
1880;DHT22;49285;49.002;8.390;2023-09-18T10:27:00;22.70;99.90
1880;DHT22;49285;49.002;8.390;2023-09-18T10:29:26;22.60;99.90
1880;DHT22;49285;49.002;8.390;2023-09-18T10:31:53;22.70;99.90
1880;DHT22;49285;49.002;8.390;2023-09-18T10:34:20;22.70;99.90
1880;DHT22;49285;49.002;8.390;2023-09-18T10:36:47;22.80;99.90
1880;DHT22;49285;49.002;8.390;2023-09-18T10:39:14;22.80;99.90
1880;DHT22;49285;49.002;8.390;2023-09-18T10:41:47;22.70;99.90
1880;DHT22;49285;49.002;8.390;2023-09-18T10:44:14;22.80;99.90
1880;DHT22;49285;49.002;8.390;2023-09-18T10:46:39;22.80;99.90
1880;DHT22;49285;49.002;8.390;2023-09-18T10:49:05;22.90;99.90
1880;DHT22;49285;49.002;8.390;2023-09-18T10:51:32;22.90;99.90
1880;DHT22;49285;49.002;8.390;2023-09-18T10:54:00;23.00;99.90
1880;DHT22;49285;49.002;8.390;2023-09-18T10:56:26;23.00;99.90
1880;DHT22;49285;49.002;8.390;2023-09-18T10:58:59;23.10;99.90
1880;DHT22;49285;49.002;8.390;2023-09-18T11:01:25;23.10;99.90
1880;DHT22;49285;49.002;8.390;2023-09-18T11:03:52;23.20;99.90
1880;DHT22;49285;49.002;8.390;2023-09-18T11:06:18;23.20;99.90
1880;DHT22;49285;49.002;8.390;2023-09-18T11:08:48;23.20;99.90
1880;DHT22;49285;49.002;8.390;2023-09-18T11:11:18;23.30;99.90
1880;DHT22;49285;49.002;8.390;2023-09-18T11:13:51;23.30;99.90
1880;DHT22;49285;49.002;8.390;2023-09-18T11:19:07;23.40;99.90
1880;DHT22;49285;49.002;8.390;2023-09-18T11:21:33;23.50;99.90
1880;DHT22;49285;49.002;8.390;2023-09-18T11:24:01;23.50;99.90
1880;DHT22;49285;49.002;8.390;2023-09-18T11:26:34;23.50;99.90
1880;DHT22;49285;49.002;8.390;2023-09-18T11:29:09;23.50;99.90
1880;DHT22;49285;49.002;8.390;2023-09-18T11:34:22;23.80;99.90
1880;DHT22;49285;49.002;8.390;2023-09-18T11:36:49;23.90;99.90
1880;DHT22;49285;49.002;8.390;2023-09-18T11:39:40;24.00;99.90
1880;DHT22;49285;49.002;8.390;2023-09-18T11:42:26;24.10;99.90
1880;DHT22;49285;49.002;8.390;2023-09-18T11:44:54;24.20;99.90
1880;DHT22;49285;49.002;8.390;2023-09-18T11:47:24;24.20;99.90
1880;DHT22;49285;49.002;8.390;2023-09-18T11:49:56;24.20;99.90
1880;DHT22;49285;49.002;8.390;2023-09-18T11:52:25;24.20;99.90
1880;DHT22;49285;49.002;8.390;2023-09-18T11:54:52;24.20;99.90
1880;DHT22;49285;49.002;8.390;2023-09-18T11:57:18;24.20;99.90
1880;DHT22;49285;49.002;8.390;2023-09-18T11:59:47;24.20;99.90
1880;DHT22;49285;49.002;8.390;2023-09-18T12:02:24;24.10;99.90
1880;DHT22;49285;49.002;8.390;2023-09-18T12:04:54;24.20;99.90
1880;DHT22;49285;49.002;8.390;2023-09-18T12:07:20;24.30;99.90
1880;DHT22;49285;49.002;8.390;2023-09-18T12:09:46;24.30;99.90
1880;DHT22;49285;49.002;8.390;2023-09-18T12:12:11;24.40;99.90
1880;DHT22;49285;49.002;8.390;2023-09-18T12:14:40;24.20;99.90
1880;DHT22;49285;49.002;8.390;2023-09-18T12:17:07;24.20;99.90
1880;DHT22;49285;49.002;8.390;2023-09-18T12:19:34;24.10;99.90
1880;DHT22;49285;49.002;8.390;2023-09-18T12:22:01;24.20;99.90
1880;DHT22;49285;49.002;8.390;2023-09-18T12:24:27;24.20;99.90
1880;DHT22;49285;49.002;8.390;2023-09-18T12:26:54;24.20;99.90
1880;DHT22;49285;49.002;8.390;2023-09-18T12:29:20;24.20;99.90
1880;DHT22;49285;49.002;8.390;2023-09-18T12:31:46;24.30;99.90
1880;DHT22;49285;49.002;8.390;2023-09-18T12:34:19;24.30;99.90
1880;DHT22;49285;49.002;8.390;2023-09-18T12:36:47;24.30;99.90
1880;DHT22;49285;49.002;8.390;2023-09-18T12:39:16;24.30;99.90
1880;DHT22;49285;49.002;8.390;2023-09-18T12:41:46;24.40;99.90
1880;DHT22;49285;49.002;8.390;2023-09-18T12:44:13;24.50;99.90
1880;DHT22;49285;49.002;8.390;2023-09-18T12:46:43;24.50;99.90
1880;DHT22;49285;49.002;8.390;2023-09-18T12:49:18;24.60;99.90
1880;DHT22;49285;49.002;8.390;2023-09-18T12:51:44;24.70;99.90
1880;DHT22;49285;49.002;8.390;2023-09-18T12:54:10;24.70;99.90
1880;DHT22;49285;49.002;8.390;2023-09-18T12:56:42;24.80;99.90
1880;DHT22;49285;49.002;8.390;2023-09-18T12:59:09;24.80;99.90
1880;DHT22;49285;49.002;8.390;2023-09-18T13:01:35;25.00;99.90
1880;DHT22;49285;49.002;8.390;2023-09-18T13:04:03;25.20;99.90
1880;DHT22;49285;49.002;8.390;2023-09-18T13:06:31;25.30;99.90
1880;DHT22;49285;49.002;8.390;2023-09-18T13:09:15;25.50;99.90
1880;DHT22;49285;49.002;8.390;2023-09-18T13:11:55;25.70;99.90
1880;DHT22;49285;49.002;8.390;2023-09-18T13:14:21;25.90;99.90
1880;DHT22;49285;49.002;8.390;2023-09-18T13:16:47;26.00;99.90
1880;DHT22;49285;49.002;8.390;2023-09-18T13:19:13;26.20;99.90
1880;DHT22;49285;49.002;8.390;2023-09-18T13:21:49;26.40;99.90
1880;DHT22;49285;49.002;8.390;2023-09-18T13:24:27;26.30;99.90
1880;DHT22;49285;49.002;8.390;2023-09-18T13:26:54;26.30;99.90
1880;DHT22;49285;49.002;8.390;2023-09-18T13:29:20;26.40;99.90
1880;DHT22;49285;49.002;8.390;2023-09-18T13:31:47;26.40;99.90
1880;DHT22;49285;49.002;8.390;2023-09-18T13:34:12;26.60;99.90
1880;DHT22;49285;49.002;8.390;2023-09-18T13:36:38;26.50;99.90
1880;DHT22;49285;49.002;8.390;2023-09-18T13:39:04;26.40;99.90
1880;DHT22;49285;49.002;8.390;2023-09-18T13:41:30;26.40;99.90
1880;DHT22;49285;49.002;8.390;2023-09-18T13:43:56;26.60;99.90
1880;DHT22;49285;49.002;8.390;2023-09-18T13:46:22;27.10;99.90
1880;DHT22;49285;49.002;8.390;2023-09-18T13:48:49;27.30;99.90
1880;DHT22;49285;49.002;8.390;2023-09-18T13:51:14;27.70;99.90
1880;DHT22;49285;49.002;8.390;2023-09-18T13:53:40;27.90;99.90
1880;DHT22;49285;49.002;8.390;2023-09-18T13:56:07;27.80;99.90
1880;DHT22;49285;49.002;8.390;2023-09-18T13:58:32;27.60;99.90
1880;DHT22;49285;49.002;8.390;2023-09-18T14:00:59;27.40;99.90
1880;DHT22;49285;49.002;8.390;2023-09-18T14:03:25;27.60;99.90
1880;DHT22;49285;49.002;8.390;2023-09-18T14:05:50;27.80;99.90
1880;DHT22;49285;49.002;8.390;2023-09-18T14:08:16;28.00;99.90
1880;DHT22;49285;49.002;8.390;2023-09-18T14:10:43;28.20;99.90
1880;DHT22;49285;49.002;8.390;2023-09-18T14:13:09;28.40;99.90
1880;DHT22;49285;49.002;8.390;2023-09-18T14:15:35;28.70;99.90
1880;DHT22;49285;49.002;8.390;2023-09-18T14:18:00;29.10;99.90
1880;DHT22;49285;49.002;8.390;2023-09-18T14:20:26;29.10;99.90
1880;DHT22;49285;49.002;8.390;2023-09-18T14:22:52;29.20;99.90
1880;DHT22;49285;49.002;8.390;2023-09-18T14:25:18;29.20;99.90
1880;DHT22;49285;49.002;8.390;2023-09-18T14:27:45;29.10;99.90
1880;DHT22;49285;49.002;8.390;2023-09-18T14:30:11;29.00;99.90
1880;DHT22;49285;49.002;8.390;2023-09-18T14:32:39;29.00;99.90
1880;DHT22;49285;49.002;8.390;2023-09-18T14:35:05;28.90;99.90
1880;DHT22;49285;49.002;8.390;2023-09-18T14:37:34;29.00;99.90
1880;DHT22;49285;49.002;8.390;2023-09-18T14:40:00;29.00;99.90
1880;DHT22;49285;49.002;8.390;2023-09-18T14:42:26;28.90;99.90
1880;DHT22;49285;49.002;8.390;2023-09-18T14:44:51;28.90;99.90
1880;DHT22;49285;49.002;8.390;2023-09-18T14:47:17;28.90;99.90
1880;DHT22;49285;49.002;8.390;2023-09-18T14:49:42;28.90;99.90
1880;DHT22;49285;49.002;8.390;2023-09-18T14:52:14;28.80;99.90
1880;DHT22;49285;49.002;8.390;2023-09-18T14:54:40;28.70;99.90
1880;DHT22;49285;49.002;8.390;2023-09-18T14:57:06;28.60;99.90
1880;DHT22;49285;49.002;8.390;2023-09-18T14:59:31;28.50;99.90
1880;DHT22;49285;49.002;8.390;2023-09-18T15:01:57;28.40;99.90
1880;DHT22;49285;49.002;8.390;2023-09-18T15:04:23;28.40;99.90
1880;DHT22;49285;49.002;8.390;2023-09-18T15:06:48;28.30;99.90
1880;DHT22;49285;49.002;8.390;2023-09-18T15:09:14;28.20;99.90
1880;DHT22;49285;49.002;8.390;2023-09-18T15:11:40;28.10;99.90
1880;DHT22;49285;49.002;8.390;2023-09-18T15:14:05;28.20;99.90
1880;DHT22;49285;49.002;8.390;2023-09-18T15:16:31;28.20;99.90
1880;DHT22;49285;49.002;8.390;2023-09-18T15:18:57;28.30;99.90
1880;DHT22;49285;49.002;8.390;2023-09-18T15:21:28;28.20;99.90
1880;DHT22;49285;49.002;8.390;2023-09-18T15:23:53;28.10;99.90
1880;DHT22;49285;49.002;8.390;2023-09-18T15:26:19;28.10;99.90
1880;DHT22;49285;49.002;8.390;2023-09-18T15:28:44;28.20;99.90
1880;DHT22;49285;49.002;8.390;2023-09-18T15:31:10;28.10;99.90
1880;DHT22;49285;49.002;8.390;2023-09-18T15:33:36;28.00;99.90
1880;DHT22;49285;49.002;8.390;2023-09-18T15:36:02;28.00;99.90
1880;DHT22;49285;49.002;8.390;2023-09-18T15:38:28;28.00;99.90
1880;DHT22;49285;49.002;8.390;2023-09-18T15:40:55;28.00;99.90
1880;DHT22;49285;49.002;8.390;2023-09-18T15:43:20;27.90;99.90
1880;DHT22;49285;49.002;8.390;2023-09-18T15:45:46;27.70;99.90
1880;DHT22;49285;49.002;8.390;2023-09-18T15:48:12;27.80;99.90
1880;DHT22;49285;49.002;8.390;2023-09-18T15:50:38;27.90;99.90
1880;DHT22;49285;49.002;8.390;2023-09-18T15:53:03;27.90;99.90
1880;DHT22;49285;49.002;8.390;2023-09-18T15:55:29;27.90;99.90
1880;DHT22;49285;49.002;8.390;2023-09-18T15:57:54;27.70;99.90
1880;DHT22;49285;49.002;8.390;2023-09-18T16:00:20;27.70;99.90
1880;DHT22;49285;49.002;8.390;2023-09-18T16:02:46;27.60;99.90
1880;DHT22;49285;49.002;8.390;2023-09-18T16:05:12;27.60;99.90
1880;DHT22;49285;49.002;8.390;2023-09-18T16:07:39;27.50;99.90
1880;DHT22;49285;49.002;8.390;2023-09-18T16:10:06;27.40;99.90